sensor_id;sensor_type;location;lat;lon;timestamp;temperature;humidity
843;DHT22;407;48.884;9.126;2023-02-01T00:01:50;5.00;99.90
843;DHT22;407;48.884;9.126;2023-02-01T00:04:16;5.00;1.00
843;DHT22;407;48.884;9.126;2023-02-01T00:06:42;4.90;99.90
843;DHT22;407;48.884;9.126;2023-02-01T00:09:07;4.80;99.90
843;DHT22;407;48.884;9.126;2023-02-01T00:11:33;6.10;1.00
843;DHT22;407;48.884;9.126;2023-02-01T00:13:59;4.80;99.90
843;DHT22;407;48.884;9.126;2023-02-01T00:16:27;4.80;99.90
843;DHT22;407;48.884;9.126;2023-02-01T00:19:02;4.70;1.00
843;DHT22;407;48.884;9.126;2023-02-01T00:21:29;4.80;1.00
843;DHT22;407;48.884;9.126;2023-02-01T00:23:56;4.80;1.00
843;DHT22;407;48.884;9.126;2023-02-01T00:26:36;4.70;1.00
843;DHT22;407;48.884;9.126;2023-02-01T00:29:04;4.60;1.00
843;DHT22;407;48.884;9.126;2023-02-01T00:31:30;5.00;99.90
843;DHT22;407;48.884;9.126;2023-02-01T00:33:56;4.50;99.90
843;DHT22;407;48.884;9.126;2023-02-01T00:36:22;6.00;58.50
843;DHT22;407;48.884;9.126;2023-02-01T00:38:47;5.10;99.90
843;DHT22;407;48.884;9.126;2023-02-01T00:41:18;5.10;1.00
843;DHT22;407;48.884;9.126;2023-02-01T00:43:45;5.70;1.00
843;DHT22;407;48.884;9.126;2023-02-01T00:46:12;4.60;32.50
843;DHT22;407;48.884;9.126;2023-02-01T00:48:38;4.50;99.90
843;DHT22;407;48.884;9.126;2023-02-01T00:51:11;5.80;99.90
843;DHT22;407;48.884;9.126;2023-02-01T00:53:37;4.50;99.90
843;DHT22;407;48.884;9.126;2023-02-01T00:56:03;4.50;99.90
843;DHT22;407;48.884;9.126;2023-02-01T00:58:30;4.40;99.90
843;DHT22;407;48.884;9.126;2023-02-01T01:01:16;4.20;99.90
843;DHT22;407;48.884;9.126;2023-02-01T01:03:45;4.20;99.90
843;DHT22;407;48.884;9.126;2023-02-01T01:06:17;4.10;99.90
843;DHT22;407;48.884;9.126;2023-02-01T01:08:43;4.20;99.90
843;DHT22;407;48.884;9.126;2023-02-01T01:11:15;5.20;99.90
843;DHT22;407;48.884;9.126;2023-02-01T01:13:41;4.30;99.90
843;DHT22;407;48.884;9.126;2023-02-01T01:16:08;4.50;99.90
843;DHT22;407;48.884;9.126;2023-02-01T01:18:34;5.20;99.90
843;DHT22;407;48.884;9.126;2023-02-01T01:21:01;4.30;99.90
843;DHT22;407;48.884;9.126;2023-02-01T01:23:27;4.40;99.90
843;DHT22;407;48.884;9.126;2023-02-01T01:25:53;4.50;21.60
843;DHT22;407;48.884;9.126;2023-02-01T01:28:19;5.90;99.90
843;DHT22;407;48.884;9.126;2023-02-01T01:30:44;4.40;99.90
843;DHT22;407;48.884;9.126;2023-02-01T01:33:10;5.30;64.40
843;DHT22;407;48.884;9.126;2023-02-01T01:35:36;4.30;99.90
843;DHT22;407;48.884;9.126;2023-02-01T01:38:02;4.30;99.90
843;DHT22;407;48.884;9.126;2023-02-01T01:40:29;4.80;99.90
843;DHT22;407;48.884;9.126;2023-02-01T01:42:55;4.30;99.90
843;DHT22;407;48.884;9.126;2023-02-01T01:45:27;4.30;99.90
843;DHT22;407;48.884;9.126;2023-02-01T01:48:02;4.30;99.90
843;DHT22;407;48.884;9.126;2023-02-01T01:50:54;4.40;99.90
843;DHT22;407;48.884;9.126;2023-02-01T01:53:28;4.40;99.90
843;DHT22;407;48.884;9.126;2023-02-01T01:55:56;4.40;99.90
843;DHT22;407;48.884;9.126;2023-02-01T01:58:25;4.40;99.90
843;DHT22;407;48.884;9.126;2023-02-01T02:00:51;4.60;99.90
843;DHT22;407;48.884;9.126;2023-02-01T02:03:23;4.70;94.50
843;DHT22;407;48.884;9.126;2023-02-01T02:05:52;6.10;1.00
843;DHT22;407;48.884;9.126;2023-02-01T02:08:20;4.80;1.00
843;DHT22;407;48.884;9.126;2023-02-01T02:10:50;4.90;99.90
843;DHT22;407;48.884;9.126;2023-02-01T02:15:59;5.00;99.90
843;DHT22;407;48.884;9.126;2023-02-01T02:18:44;5.60;1.00
843;DHT22;407;48.884;9.126;2023-02-01T02:27:10;4.80;99.90
843;DHT22;407;48.884;9.126;2023-02-01T02:35:33;4.80;1.00
843;DHT22;407;48.884;9.126;2023-02-01T02:38:15;4.90;99.90
843;DHT22;407;48.884;9.126;2023-02-01T02:41:10;4.90;1.00
843;DHT22;407;48.884;9.126;2023-02-01T02:43:42;4.90;1.00
843;DHT22;407;48.884;9.126;2023-02-01T02:46:38;5.90;99.90
843;DHT22;407;48.884;9.126;2023-02-01T02:49:25;5.00;52.80
843;DHT22;407;48.884;9.126;2023-02-01T02:52:12;5.00;1.00
843;DHT22;407;48.884;9.126;2023-02-01T02:54:59;5.00;1.00
843;DHT22;407;48.884;9.126;2023-02-01T02:57:34;5.00;99.90
843;DHT22;407;48.884;9.126;2023-02-01T03:00:22;4.90;1.00
843;DHT22;407;48.884;9.126;2023-02-01T03:03:07;5.90;1.00
843;DHT22;407;48.884;9.126;2023-02-01T03:05:51;5.90;99.90
843;DHT22;407;48.884;9.126;2023-02-01T03:08:28;5.10;1.00
843;DHT22;407;48.884;9.126;2023-02-01T03:11:08;5.10;99.90
843;DHT22;407;48.884;9.126;2023-02-01T03:13:56;5.00;1.00
843;DHT22;407;48.884;9.126;2023-02-01T03:27:20;4.80;78.30
843;DHT22;407;48.884;9.126;2023-02-01T03:30:07;4.90;99.90
843;DHT22;407;48.884;9.126;2023-02-01T03:32:36;4.90;1.00
843;DHT22;407;48.884;9.126;2023-02-01T03:35:47;6.20;1.00
843;DHT22;407;48.884;9.126;2023-02-01T03:38:20;5.30;1.00
843;DHT22;407;48.884;9.126;2023-02-01T03:40:52;5.20;99.90
843;DHT22;407;48.884;9.126;2023-02-01T03:43:20;5.40;1.00
843;DHT22;407;48.884;9.126;2023-02-01T03:45:50;5.50;99.90
843;DHT22;407;48.884;9.126;2023-02-01T03:48:18;5.60;99.90
843;DHT22;407;48.884;9.126;2023-02-01T03:50:50;5.50;1.00
843;DHT22;407;48.884;9.126;2023-02-01T03:53:19;5.40;99.90
843;DHT22;407;48.884;9.126;2023-02-01T03:55:46;5.30;99.90
843;DHT22;407;48.884;9.126;2023-02-01T03:58:18;5.50;1.00
843;DHT22;407;48.884;9.126;2023-02-01T04:00:57;5.00;1.00
843;DHT22;407;48.884;9.126;2023-02-01T04:03:23;4.90;99.90
843;DHT22;407;48.884;9.126;2023-02-01T04:05:51;5.00;99.90
843;DHT22;407;48.884;9.126;2023-02-01T04:08:18;5.10;99.90
843;DHT22;407;48.884;9.126;2023-02-01T04:10:44;5.10;1.00
843;DHT22;407;48.884;9.126;2023-02-01T04:13:10;5.10;99.90
843;DHT22;407;48.884;9.126;2023-02-01T04:15:35;5.00;1.00
843;DHT22;407;48.884;9.126;2023-02-01T04:18:01;4.80;1.00
843;DHT22;407;48.884;9.126;2023-02-01T04:20:27;4.70;61.90
843;DHT22;407;48.884;9.126;2023-02-01T04:22:52;4.70;78.70
843;DHT22;407;48.884;9.126;2023-02-01T04:25:18;4.70;85.70
843;DHT22;407;48.884;9.126;2023-02-01T04:27:44;4.70;1.00
843;DHT22;407;48.884;9.126;2023-02-01T04:30:11;5.50;1.00
843;DHT22;407;48.884;9.126;2023-02-01T04:32:38;4.70;1.00
843;DHT22;407;48.884;9.126;2023-02-01T04:35:03;4.80;1.00
843;DHT22;407;48.884;9.126;2023-02-01T04:37:29;4.90;1.00
843;DHT22;407;48.884;9.126;2023-02-01T04:39:55;5.00;1.00
843;DHT22;407;48.884;9.126;2023-02-01T04:42:20;5.10;99.90
843;DHT22;407;48.884;9.126;2023-02-01T04:44:46;5.20;1.00
843;DHT22;407;48.884;9.126;2023-02-01T04:47:11;6.10;1.00
843;DHT22;407;48.884;9.126;2023-02-01T04:49:37;4.90;99.90
843;DHT22;407;48.884;9.126;2023-02-01T04:52:03;5.00;99.90
843;DHT22;407;48.884;9.126;2023-02-01T04:54:29;4.90;1.00
843;DHT22;407;48.884;9.126;2023-02-01T04:56:54;5.10;1.00
843;DHT22;407;48.884;9.126;2023-02-01T04:59:20;5.50;99.90
843;DHT22;407;48.884;9.126;2023-02-01T05:01:46;4.90;1.00
843;DHT22;407;48.884;9.126;2023-02-01T05:04:11;5.60;1.00
843;DHT22;407;48.884;9.126;2023-02-01T05:06:37;4.80;1.00
843;DHT22;407;48.884;9.126;2023-02-01T05:09:02;4.70;99.90
843;DHT22;407;48.884;9.126;2023-02-01T05:11:28;4.70;99.90
843;DHT22;407;48.884;9.126;2023-02-01T05:14:13;6.10;99.90
843;DHT22;407;48.884;9.126;2023-02-01T05:16:39;4.70;99.90
843;DHT22;407;48.884;9.126;2023-02-01T05:19:04;4.70;99.90
843;DHT22;407;48.884;9.126;2023-02-01T05:21:30;4.80;99.90
843;DHT22;407;48.884;9.126;2023-02-01T05:23:56;5.20;45.80
843;DHT22;407;48.884;9.126;2023-02-01T05:26:45;6.30;1.00
843;DHT22;407;48.884;9.126;2023-02-01T05:29:11;5.40;1.00
843;DHT22;407;48.884;9.126;2023-02-01T05:31:36;5.50;99.90
843;DHT22;407;48.884;9.126;2023-02-01T05:34:02;6.20;1.00
843;DHT22;407;48.884;9.126;2023-02-01T05:36:28;5.60;1.00
843;DHT22;407;48.884;9.126;2023-02-01T05:38:54;5.60;1.00
843;DHT22;407;48.884;9.126;2023-02-01T05:41:19;5.60;1.00
843;DHT22;407;48.884;9.126;2023-02-01T05:43:45;5.60;99.90
843;DHT22;407;48.884;9.126;2023-02-01T05:46:11;5.60;99.90
843;DHT22;407;48.884;9.126;2023-02-01T05:48:38;5.60;99.90
843;DHT22;407;48.884;9.126;2023-02-01T05:51:04;5.70;99.90
843;DHT22;407;48.884;9.126;2023-02-01T05:53:30;5.70;1.00
843;DHT22;407;48.884;9.126;2023-02-01T05:55:55;5.80;1.00
843;DHT22;407;48.884;9.126;2023-02-01T05:58:21;5.80;1.00
843;DHT22;407;48.884;9.126;2023-02-01T06:00:47;6.00;69.70
843;DHT22;407;48.884;9.126;2023-02-01T06:03:12;6.50;55.00
843;DHT22;407;48.884;9.126;2023-02-01T06:05:38;6.20;1.00
843;DHT22;407;48.884;9.126;2023-02-01T06:08:03;6.20;1.00
843;DHT22;407;48.884;9.126;2023-02-01T06:10:29;6.30;1.00
843;DHT22;407;48.884;9.126;2023-02-01T06:12:55;6.20;1.00
843;DHT22;407;48.884;9.126;2023-02-01T06:15:20;6.20;1.00
843;DHT22;407;48.884;9.126;2023-02-01T06:17:46;6.20;59.10
843;DHT22;407;48.884;9.126;2023-02-01T06:20:13;6.20;24.70
843;DHT22;407;48.884;9.126;2023-02-01T06:22:40;6.30;1.00
843;DHT22;407;48.884;9.126;2023-02-01T06:25:08;6.20;1.00
843;DHT22;407;48.884;9.126;2023-02-01T06:27:34;6.30;63.30
843;DHT22;407;48.884;9.126;2023-02-01T06:30:00;6.10;99.90
843;DHT22;407;48.884;9.126;2023-02-01T06:32:25;5.90;99.90
843;DHT22;407;48.884;9.126;2023-02-01T06:34:51;5.80;1.00
843;DHT22;407;48.884;9.126;2023-02-01T06:37:20;5.80;99.90
843;DHT22;407;48.884;9.126;2023-02-01T06:39:46;5.80;1.00
843;DHT22;407;48.884;9.126;2023-02-01T06:42:12;6.00;52.90
843;DHT22;407;48.884;9.126;2023-02-01T06:44:37;5.70;99.90
843;DHT22;407;48.884;9.126;2023-02-01T06:47:04;5.70;99.90
843;DHT22;407;48.884;9.126;2023-02-01T06:49:29;5.70;99.90
843;DHT22;407;48.884;9.126;2023-02-01T06:51:55;5.70;1.00
843;DHT22;407;48.884;9.126;2023-02-01T06:54:20;6.30;99.90
843;DHT22;407;48.884;9.126;2023-02-01T06:56:46;6.40;1.00
843;DHT22;407;48.884;9.126;2023-02-01T06:59:12;5.80;1.00
843;DHT22;407;48.884;9.126;2023-02-01T07:01:37;5.80;99.90
843;DHT22;407;48.884;9.126;2023-02-01T07:04:03;6.80;1.00
843;DHT22;407;48.884;9.126;2023-02-01T07:06:29;5.80;1.00
843;DHT22;407;48.884;9.126;2023-02-01T07:08:54;5.90;1.00
843;DHT22;407;48.884;9.126;2023-02-01T07:11:21;5.90;99.90
843;DHT22;407;48.884;9.126;2023-02-01T07:13:47;5.90;99.90
843;DHT22;407;48.884;9.126;2023-02-01T07:16:16;5.90;99.90
843;DHT22;407;48.884;9.126;2023-02-01T07:18:41;5.90;99.90
843;DHT22;407;48.884;9.126;2023-02-01T07:21:07;5.90;99.90
843;DHT22;407;48.884;9.126;2023-02-01T07:23:33;6.00;99.90
843;DHT22;407;48.884;9.126;2023-02-01T07:26:01;7.10;21.90
843;DHT22;407;48.884;9.126;2023-02-01T07:28:30;5.90;1.00
843;DHT22;407;48.884;9.126;2023-02-01T07:33:30;6.00;1.00
843;DHT22;407;48.884;9.126;2023-02-01T07:35:56;6.00;1.00
843;DHT22;407;48.884;9.126;2023-02-01T07:38:22;6.00;1.00
843;DHT22;407;48.884;9.126;2023-02-01T07:40:49;6.00;1.00
843;DHT22;407;48.884;9.126;2023-02-01T07:43:15;6.00;1.00
843;DHT22;407;48.884;9.126;2023-02-01T07:45:40;6.00;1.00
843;DHT22;407;48.884;9.126;2023-02-01T07:48:06;6.00;1.00
843;DHT22;407;48.884;9.126;2023-02-01T07:50:32;6.00;1.00
843;DHT22;407;48.884;9.126;2023-02-01T07:53:00;6.10;1.00
843;DHT22;407;48.884;9.126;2023-02-01T07:55:26;6.00;1.00
843;DHT22;407;48.884;9.126;2023-02-01T07:57:52;7.10;31.30
843;DHT22;407;48.884;9.126;2023-02-01T08:00:18;5.90;78.30
843;DHT22;407;48.884;9.126;2023-02-01T08:03:04;5.80;54.30
843;DHT22;407;48.884;9.126;2023-02-01T08:05:30;6.00;1.00
843;DHT22;407;48.884;9.126;2023-02-01T08:07:55;7.20;17.70
843;DHT22;407;48.884;9.126;2023-02-01T08:10:21;6.00;1.00
843;DHT22;407;48.884;9.126;2023-02-01T08:12:47;6.10;1.00
843;DHT22;407;48.884;9.126;2023-02-01T08:15:16;6.90;1.00
843;DHT22;407;48.884;9.126;2023-02-01T08:17:48;6.00;1.00
843;DHT22;407;48.884;9.126;2023-02-01T08:20:14;6.10;99.90
843;DHT22;407;48.884;9.126;2023-02-01T08:22:40;6.20;99.90
843;DHT22;407;48.884;9.126;2023-02-01T08:25:06;6.30;99.90
843;DHT22;407;48.884;9.126;2023-02-01T08:27:35;6.30;99.90
843;DHT22;407;48.884;9.126;2023-02-01T08:30:01;6.30;72.20
843;DHT22;407;48.884;9.126;2023-02-01T08:32:27;6.40;1.00
843;DHT22;407;48.884;9.126;2023-02-01T08:34:53;6.50;1.00
843;DHT22;407;48.884;9.126;2023-02-01T08:37:19;6.60;1.00
843;DHT22;407;48.884;9.126;2023-02-01T08:39:45;7.70;1.00
843;DHT22;407;48.884;9.126;2023-02-01T08:42:11;6.80;1.00
843;DHT22;407;48.884;9.126;2023-02-01T08:44:55;6.60;1.00
843;DHT22;407;48.884;9.126;2023-02-01T08:47:21;6.60;1.00
843;DHT22;407;48.884;9.126;2023-02-01T08:49:47;7.70;1.00
843;DHT22;407;48.884;9.126;2023-02-01T08:52:12;6.60;1.00
843;DHT22;407;48.884;9.126;2023-02-01T08:54:38;6.70;1.00
843;DHT22;407;48.884;9.126;2023-02-01T08:57:06;6.60;1.00
843;DHT22;407;48.884;9.126;2023-02-01T08:59:31;6.60;1.00
843;DHT22;407;48.884;9.126;2023-02-01T09:01:57;6.50;1.00
843;DHT22;407;48.884;9.126;2023-02-01T09:04:23;6.40;1.00
843;DHT22;407;48.884;9.126;2023-02-01T09:06:48;6.40;1.00
843;DHT22;407;48.884;9.126;2023-02-01T09:09:14;6.40;1.00
843;DHT22;407;48.884;9.126;2023-02-01T09:11:40;6.40;1.00
843;DHT22;407;48.884;9.126;2023-02-01T09:14:05;6.30;1.00
843;DHT22;407;48.884;9.126;2023-02-01T09:16:31;6.40;87.00
843;DHT22;407;48.884;9.126;2023-02-01T09:18:57;6.30;1.00
843;DHT22;407;48.884;9.126;2023-02-01T09:21:23;7.30;99.90
843;DHT22;407;48.884;9.126;2023-02-01T09:23:51;6.20;99.90
843;DHT22;407;48.884;9.126;2023-02-01T09:26:17;7.10;1.00
843;DHT22;407;48.884;9.126;2023-02-01T09:28:43;6.30;99.90
843;DHT22;407;48.884;9.126;2023-02-01T09:31:08;6.40;99.90
843;DHT22;407;48.884;9.126;2023-02-01T09:33:34;6.30;99.90
843;DHT22;407;48.884;9.126;2023-02-01T09:36:02;7.40;35.40
843;DHT22;407;48.884;9.126;2023-02-01T09:38:29;6.30;77.50
843;DHT22;407;48.884;9.126;2023-02-01T09:40:55;7.20;2.40
843;DHT22;407;48.884;9.126;2023-02-01T09:48:33;6.40;1.00
843;DHT22;407;48.884;9.126;2023-02-01T09:51:04;6.80;1.00
843;DHT22;407;48.884;9.126;2023-02-01T09:53:34;6.30;1.00
843;DHT22;407;48.884;9.126;2023-02-01T09:56:06;6.40;1.00
843;DHT22;407;48.884;9.126;2023-02-01T09:58:39;6.60;1.00
843;DHT22;407;48.884;9.126;2023-02-01T10:01:15;6.80;1.00
843;DHT22;407;48.884;9.126;2023-02-01T10:03:43;6.80;99.90
843;DHT22;407;48.884;9.126;2023-02-01T10:25:36;8.70;1.00
843;DHT22;407;48.884;9.126;2023-02-01T10:28:01;8.40;1.00
843;DHT22;407;48.884;9.126;2023-02-01T10:30:33;8.00;1.00
843;DHT22;407;48.884;9.126;2023-02-01T10:33:18;8.50;1.00
843;DHT22;407;48.884;9.126;2023-02-01T10:35:45;7.40;1.00
843;DHT22;407;48.884;9.126;2023-02-01T10:38:30;8.10;1.00
843;DHT22;407;48.884;9.126;2023-02-01T10:41:17;7.10;1.00
843;DHT22;407;48.884;9.126;2023-02-01T10:43:45;6.80;1.00
843;DHT22;407;48.884;9.126;2023-02-01T10:46:13;7.00;1.00
843;DHT22;407;48.884;9.126;2023-02-01T10:48:39;8.10;1.00
843;DHT22;407;48.884;9.126;2023-02-01T10:51:14;7.00;1.00
843;DHT22;407;48.884;9.126;2023-02-01T10:53:55;6.80;1.00
843;DHT22;407;48.884;9.126;2023-02-01T10:56:26;6.70;1.00
843;DHT22;407;48.884;9.126;2023-02-01T10:59:01;6.60;1.00
843;DHT22;407;48.884;9.126;2023-02-01T11:01:40;6.60;1.00
843;DHT22;407;48.884;9.126;2023-02-01T11:04:19;7.10;1.00
843;DHT22;407;48.884;9.126;2023-02-01T11:07:23;6.60;1.00
843;DHT22;407;48.884;9.126;2023-02-01T11:09:52;6.70;1.00
843;DHT22;407;48.884;9.126;2023-02-01T11:15:15;6.70;1.00
843;DHT22;407;48.884;9.126;2023-02-01T11:17:45;6.80;1.00
843;DHT22;407;48.884;9.126;2023-02-01T11:20:35;6.80;1.00
843;DHT22;407;48.884;9.126;2023-02-01T11:23:03;6.90;1.00
843;DHT22;407;48.884;9.126;2023-02-01T11:25:29;6.80;1.00
843;DHT22;407;48.884;9.126;2023-02-01T11:27:56;6.60;1.00
843;DHT22;407;48.884;9.126;2023-02-01T11:30:42;6.70;1.00
843;DHT22;407;48.884;9.126;2023-02-01T11:33:15;6.80;1.00
843;DHT22;407;48.884;9.126;2023-02-01T11:35:42;7.30;1.00
843;DHT22;407;48.884;9.126;2023-02-01T11:38:21;6.70;1.00
843;DHT22;407;48.884;9.126;2023-02-01T11:40:47;7.00;1.00
843;DHT22;407;48.884;9.126;2023-02-01T11:43:26;7.90;1.00
843;DHT22;407;48.884;9.126;2023-02-01T11:45:57;6.90;1.00
843;DHT22;407;48.884;9.126;2023-02-01T11:48:24;7.00;1.00
843;DHT22;407;48.884;9.126;2023-02-01T11:55:55;7.30;1.00
843;DHT22;407;48.884;9.126;2023-02-01T12:01:32;7.10;1.00
843;DHT22;407;48.884;9.126;2023-02-01T12:06:48;7.20;1.00
843;DHT22;407;48.884;9.126;2023-02-01T12:12:40;6.90;1.00
843;DHT22;407;48.884;9.126;2023-02-01T12:15:27;6.90;1.00
843;DHT22;407;48.884;9.126;2023-02-01T12:20:45;6.90;1.00
843;DHT22;407;48.884;9.126;2023-02-01T12:34:30;6.90;1.00
843;DHT22;407;48.884;9.126;2023-02-01T12:40:21;6.90;1.00
843;DHT22;407;48.884;9.126;2023-02-01T12:42:57;6.60;1.00
843;DHT22;407;48.884;9.126;2023-02-01T12:45:43;6.60;1.00
843;DHT22;407;48.884;9.126;2023-02-01T12:51:02;6.50;1.00
843;DHT22;407;48.884;9.126;2023-02-01T12:56:07;7.70;1.00
843;DHT22;407;48.884;9.126;2023-02-01T12:58:55;7.80;1.00
843;DHT22;407;48.884;9.126;2023-02-01T13:04:19;6.40;1.00
843;DHT22;407;48.884;9.126;2023-02-01T13:09:41;6.40;1.00
843;DHT22;407;48.884;9.126;2023-02-01T13:12:28;6.10;76.30
843;DHT22;407;48.884;9.126;2023-02-01T13:15:17;5.90;99.90
843;DHT22;407;48.884;9.126;2023-02-01T13:17:46;6.00;99.90
843;DHT22;407;48.884;9.126;2023-02-01T13:23:29;6.20;99.90
843;DHT22;407;48.884;9.126;2023-02-01T13:25:55;6.40;99.90
843;DHT22;407;48.884;9.126;2023-02-01T13:39:19;6.40;18.20
843;DHT22;407;48.884;9.126;2023-02-01T13:41:56;6.90;1.00
843;DHT22;407;48.884;9.126;2023-02-01T13:46:58;6.80;1.00
843;DHT22;407;48.884;9.126;2023-02-01T13:49:28;6.60;1.00
843;DHT22;407;48.884;9.126;2023-02-01T13:51:56;6.50;1.00
843;DHT22;407;48.884;9.126;2023-02-01T13:54:30;6.60;1.00
843;DHT22;407;48.884;9.126;2023-02-01T13:56:57;7.40;1.00
843;DHT22;407;48.884;9.126;2023-02-01T14:05:13;6.50;1.00
843;DHT22;407;48.884;9.126;2023-02-01T14:10:56;6.50;1.00
843;DHT22;407;48.884;9.126;2023-02-01T14:13:31;6.30;1.00
843;DHT22;407;48.884;9.126;2023-02-01T14:23:54;6.30;1.00
843;DHT22;407;48.884;9.126;2023-02-01T14:32:05;6.40;1.00
843;DHT22;407;48.884;9.126;2023-02-01T14:42:54;6.50;1.00
843;DHT22;407;48.884;9.126;2023-02-01T14:47:48;6.30;1.00
843;DHT22;407;48.884;9.126;2023-02-01T14:55:40;6.30;1.00
843;DHT22;407;48.884;9.126;2023-02-01T15:00:55;6.60;1.00
843;DHT22;407;48.884;9.126;2023-02-01T15:03:39;6.70;1.00
843;DHT22;407;48.884;9.126;2023-02-01T15:08:49;6.30;1.00
843;DHT22;407;48.884;9.126;2023-02-01T15:11:17;6.30;1.00
843;DHT22;407;48.884;9.126;2023-02-01T15:13:51;6.30;1.00
843;DHT22;407;48.884;9.126;2023-02-01T15:16:20;6.30;1.00
843;DHT22;407;48.884;9.126;2023-02-01T15:18:47;7.40;1.00
843;DHT22;407;48.884;9.126;2023-02-01T15:21:23;6.40;1.00
843;DHT22;407;48.884;9.126;2023-02-01T15:23:50;6.50;1.00
843;DHT22;407;48.884;9.126;2023-02-01T15:26:31;6.50;1.00
843;DHT22;407;48.884;9.126;2023-02-01T15:28:58;6.50;1.00
843;DHT22;407;48.884;9.126;2023-02-01T15:31:48;6.50;1.00
843;DHT22;407;48.884;9.126;2023-02-01T15:34:14;6.50;1.00
843;DHT22;407;48.884;9.126;2023-02-01T15:36:41;6.60;1.00
843;DHT22;407;48.884;9.126;2023-02-01T15:39:25;6.50;1.00
843;DHT22;407;48.884;9.126;2023-02-01T15:42:10;6.50;1.00
843;DHT22;407;48.884;9.126;2023-02-01T15:44:41;6.50;1.00
843;DHT22;407;48.884;9.126;2023-02-01T15:47:14;6.70;1.00
843;DHT22;407;48.884;9.126;2023-02-01T15:49:41;6.50;1.00
843;DHT22;407;48.884;9.126;2023-02-01T15:54:50;6.60;1.00
843;DHT22;407;48.884;9.126;2023-02-01T15:57:26;6.80;1.00
843;DHT22;407;48.884;9.126;2023-02-01T16:00:00;6.60;1.00
843;DHT22;407;48.884;9.126;2023-02-01T16:04:54;6.50;1.00
843;DHT22;407;48.884;9.126;2023-02-01T16:07:31;6.50;1.00
843;DHT22;407;48.884;9.126;2023-02-01T16:10:00;6.50;1.00
843;DHT22;407;48.884;9.126;2023-02-01T16:15:04;6.50;1.00
843;DHT22;407;48.884;9.126;2023-02-01T16:17:29;6.50;1.00
843;DHT22;407;48.884;9.126;2023-02-01T16:19:55;6.40;1.00
843;DHT22;407;48.884;9.126;2023-02-01T16:22:22;6.50;1.00
843;DHT22;407;48.884;9.126;2023-02-01T16:24:48;7.60;1.00
843;DHT22;407;48.884;9.126;2023-02-01T16:27:13;7.60;1.00
843;DHT22;407;48.884;9.126;2023-02-01T16:29:39;6.50;1.00
843;DHT22;407;48.884;9.126;2023-02-01T16:32:05;6.40;1.00
843;DHT22;407;48.884;9.126;2023-02-01T16:34:31;6.50;1.00
843;DHT22;407;48.884;9.126;2023-02-01T16:36:58;6.50;1.00
843;DHT22;407;48.884;9.126;2023-02-01T16:39:24;6.50;1.00
843;DHT22;407;48.884;9.126;2023-02-01T16:41:50;6.40;1.00
843;DHT22;407;48.884;9.126;2023-02-01T16:44:15;6.40;1.00
843;DHT22;407;48.884;9.126;2023-02-01T16:46:43;6.50;1.00
843;DHT22;407;48.884;9.126;2023-02-01T16:49:23;6.40;1.00
843;DHT22;407;48.884;9.126;2023-02-01T16:51:51;6.40;1.00
843;DHT22;407;48.884;9.126;2023-02-01T16:54:18;7.10;1.00
843;DHT22;407;48.884;9.126;2023-02-01T16:56:45;6.50;1.00
843;DHT22;407;48.884;9.126;2023-02-01T16:59:11;6.40;1.00
843;DHT22;407;48.884;9.126;2023-02-01T17:01:38;6.40;1.00
843;DHT22;407;48.884;9.126;2023-02-01T17:04:04;6.30;1.00
843;DHT22;407;48.884;9.126;2023-02-01T17:06:30;6.30;1.00
843;DHT22;407;48.884;9.126;2023-02-01T17:08:58;6.40;1.00
843;DHT22;407;48.884;9.126;2023-02-01T17:11:25;6.90;1.00
843;DHT22;407;48.884;9.126;2023-02-01T17:13:52;6.30;1.00
843;DHT22;407;48.884;9.126;2023-02-01T17:18:46;6.30;1.00
843;DHT22;407;48.884;9.126;2023-02-01T17:21:13;6.30;1.00
843;DHT22;407;48.884;9.126;2023-02-01T17:23:38;7.20;1.00
843;DHT22;407;48.884;9.126;2023-02-01T17:26:04;6.80;1.00
843;DHT22;407;48.884;9.126;2023-02-01T17:28:30;6.40;1.00
843;DHT22;407;48.884;9.126;2023-02-01T17:30:56;6.40;1.00
843;DHT22;407;48.884;9.126;2023-02-01T17:35:49;6.70;1.00
843;DHT22;407;48.884;9.126;2023-02-01T17:38:15;6.40;1.00
843;DHT22;407;48.884;9.126;2023-02-01T17:40:41;6.40;1.00
843;DHT22;407;48.884;9.126;2023-02-01T17:43:34;6.40;1.00
843;DHT22;407;48.884;9.126;2023-02-01T17:46:11;6.40;1.00
843;DHT22;407;48.884;9.126;2023-02-01T17:48:37;6.40;1.00
843;DHT22;407;48.884;9.126;2023-02-01T17:51:04;7.50;1.00
843;DHT22;407;48.884;9.126;2023-02-01T17:53:30;6.40;1.00
843;DHT22;407;48.884;9.126;2023-02-01T17:55:58;6.40;1.00
843;DHT22;407;48.884;9.126;2023-02-01T17:58:24;6.40;1.00
843;DHT22;407;48.884;9.126;2023-02-01T18:00:52;6.40;1.00
843;DHT22;407;48.884;9.126;2023-02-01T18:03:25;6.40;1.00
843;DHT22;407;48.884;9.126;2023-02-01T18:05:52;6.40;1.00
843;DHT22;407;48.884;9.126;2023-02-01T18:08:20;6.40;1.00
843;DHT22;407;48.884;9.126;2023-02-01T18:10:50;6.80;1.00
843;DHT22;407;48.884;9.126;2023-02-01T18:13:17;6.40;1.00
843;DHT22;407;48.884;9.126;2023-02-01T18:15:42;6.30;1.00
843;DHT22;407;48.884;9.126;2023-02-01T18:18:08;6.30;1.00
843;DHT22;407;48.884;9.126;2023-02-01T18:20:34;6.30;1.00
843;DHT22;407;48.884;9.126;2023-02-01T18:23:00;6.30;1.00
843;DHT22;407;48.884;9.126;2023-02-01T18:25:28;6.30;1.00
843;DHT22;407;48.884;9.126;2023-02-01T18:27:55;6.30;1.00
843;DHT22;407;48.884;9.126;2023-02-01T18:30:28;6.30;1.00
843;DHT22;407;48.884;9.126;2023-02-01T18:32:55;6.30;1.00
843;DHT22;407;48.884;9.126;2023-02-01T18:35:27;6.60;1.00
843;DHT22;407;48.884;9.126;2023-02-01T18:37:53;6.30;1.00
843;DHT22;407;48.884;9.126;2023-02-01T18:40:29;6.80;1.00
843;DHT22;407;48.884;9.126;2023-02-01T18:42:56;7.50;1.00
843;DHT22;407;48.884;9.126;2023-02-01T18:45:39;6.30;1.00
843;DHT22;407;48.884;9.126;2023-02-01T18:48:07;6.30;1.00
843;DHT22;407;48.884;9.126;2023-02-01T18:50:35;6.40;1.00
843;DHT22;407;48.884;9.126;2023-02-01T18:53:04;6.30;1.00
843;DHT22;407;48.884;9.126;2023-02-01T18:55:31;6.30;1.00
843;DHT22;407;48.884;9.126;2023-02-01T18:58:00;6.40;1.00
843;DHT22;407;48.884;9.126;2023-02-01T19:00:27;6.40;1.00
843;DHT22;407;48.884;9.126;2023-02-01T19:02:54;6.40;1.00
843;DHT22;407;48.884;9.126;2023-02-01T19:05:19;6.40;1.00
843;DHT22;407;48.884;9.126;2023-02-01T19:07:46;6.50;1.00
843;DHT22;407;48.884;9.126;2023-02-01T19:10:16;6.50;1.00
843;DHT22;407;48.884;9.126;2023-02-01T19:12:42;6.50;1.00
843;DHT22;407;48.884;9.126;2023-02-01T19:15:10;6.40;1.00
843;DHT22;407;48.884;9.126;2023-02-01T19:17:51;6.40;1.00
843;DHT22;407;48.884;9.126;2023-02-01T19:20:21;6.40;1.00
843;DHT22;407;48.884;9.126;2023-02-01T19:22:47;6.50;1.00
843;DHT22;407;48.884;9.126;2023-02-01T19:25:22;6.40;1.00
843;DHT22;407;48.884;9.126;2023-02-01T19:27:49;6.40;1.00
843;DHT22;407;48.884;9.126;2023-02-01T19:30:17;6.40;1.00
843;DHT22;407;48.884;9.126;2023-02-01T19:32:42;6.40;1.00
843;DHT22;407;48.884;9.126;2023-02-01T19:35:11;7.70;1.00
843;DHT22;407;48.884;9.126;2023-02-01T19:37:38;7.10;1.00
843;DHT22;407;48.884;9.126;2023-02-01T19:40:07;6.40;1.00
843;DHT22;407;48.884;9.126;2023-02-01T19:42:33;6.40;1.00
843;DHT22;407;48.884;9.126;2023-02-01T19:44:59;6.40;1.00
843;DHT22;407;48.884;9.126;2023-02-01T19:47:24;7.50;1.00
843;DHT22;407;48.884;9.126;2023-02-01T19:49:50;6.40;1.00
843;DHT22;407;48.884;9.126;2023-02-01T19:52:15;7.10;1.00
843;DHT22;407;48.884;9.126;2023-02-01T19:54:41;6.30;1.00
843;DHT22;407;48.884;9.126;2023-02-01T19:57:07;7.10;1.00
843;DHT22;407;48.884;9.126;2023-02-01T19:59:33;6.50;1.00
843;DHT22;407;48.884;9.126;2023-02-01T20:01:58;6.50;1.00
843;DHT22;407;48.884;9.126;2023-02-01T20:04:24;6.40;1.00
843;DHT22;407;48.884;9.126;2023-02-01T20:06:51;6.50;1.00
843;DHT22;407;48.884;9.126;2023-02-01T20:09:21;6.50;1.00
843;DHT22;407;48.884;9.126;2023-02-01T20:11:48;6.50;1.00